createdAt,value
2022-09-21T00:01:24.243Z,11.54
2022-09-21T00:03:58.565Z,11.51
2022-09-21T00:06:27.252Z,11.52
2022-09-21T00:08:55.605Z,11.50
2022-09-21T00:11:25.105Z,11.44
2022-09-21T00:13:57.784Z,11.25
2022-09-21T00:16:24.495Z,11.28
2022-09-21T00:18:51.209Z,11.32
2022-09-21T00:21:18.286Z,11.26
2022-09-21T00:23:45.538Z,11.31
2022-09-21T00:26:23.541Z,11.20
2022-09-21T00:28:59.310Z,11.03
2022-09-21T00:31:26.932Z,11.00
2022-09-21T00:33:54.077Z,10.85
2022-09-21T00:36:23.438Z,10.92
2022-09-21T00:38:55.234Z,10.88
2022-09-21T00:41:22.043Z,10.90
2022-09-21T00:44:08.611Z,10.89
2022-09-21T00:46:37.457Z,10.76
2022-09-21T00:49:04.022Z,10.73
2022-09-21T00:51:30.826Z,10.71
2022-09-21T00:54:04.832Z,10.75
2022-09-21T00:56:31.378Z,10.72
2022-09-21T00:58:58.331Z,10.83
2022-09-21T01:01:24.949Z,10.75
2022-09-21T01:03:53.593Z,10.81
2022-09-21T01:06:21.475Z,10.97
2022-09-21T01:08:54.028Z,11.06
2022-09-21T01:11:52.933Z,11.08
2022-09-21T01:14:30.930Z,11.12
2022-09-21T01:17:07.405Z,11.13
2022-09-21T01:19:55.878Z,11.11
2022-09-21T01:22:42.001Z,11.12
2022-09-21T01:25:41.523Z,11.16
2022-09-21T01:28:26.461Z,11.14
2022-09-21T01:30:55.640Z,11.04
2022-09-21T01:33:30.332Z,11.10
2022-09-21T01:36:01.871Z,10.99
2022-09-21T01:38:35.470Z,10.98
2022-09-21T01:41:06.835Z,11.00
2022-09-21T01:43:43.807Z,10.93
2022-09-21T01:46:16.016Z,10.96
2022-09-21T01:48:47.530Z,10.95
2022-09-21T01:51:18.548Z,10.88
2022-09-21T01:53:57.045Z,10.73
2022-09-21T01:56:27.806Z,10.88
2022-09-21T01:59:03.578Z,10.85
2022-09-21T02:01:35.215Z,10.82
2022-09-21T02:04:05.791Z,10.75
2022-09-21T02:06:32.808Z,10.71
2022-09-21T02:08:59.363Z,10.58
2022-09-21T02:11:26.540Z,10.49
2022-09-21T02:13:55.106Z,10.61
2022-09-21T02:16:36.296Z,10.44
2022-09-21T02:19:22.090Z,10.28
2022-09-21T02:22:10.126Z,10.12
2022-09-21T02:24:47.241Z,10.09
2022-09-21T02:27:35.350Z,10.10
2022-09-21T02:30:08.955Z,10.10
2022-09-21T02:32:58.709Z,10.11
2022-09-21T02:35:40.465Z,10.03
2022-09-21T02:38:15.710Z,10.08
2022-09-21T02:41:15.377Z,10.06
2022-09-21T02:43:51.945Z,10.14
2022-09-21T02:46:25.536Z,10.13
2022-09-21T02:49:00.799Z,9.98
2022-09-21T02:51:38.158Z,10.00
2022-09-21T02:54:08.438Z,9.92
2022-09-21T02:56:36.724Z,9.59
2022-09-21T02:59:05.711Z,9.68
2022-09-21T03:01:33.478Z,9.66
2022-09-21T03:04:01.197Z,9.66
2022-09-21T03:06:27.816Z,9.54
2022-09-21T03:08:54.341Z,9.30
2022-09-21T03:11:20.947Z,9.35
2022-09-21T03:13:47.470Z,9.16
2022-09-21T03:16:14.316Z,9.09
2022-09-21T03:18:42.177Z,9.08
2022-09-21T03:21:08.832Z,9.00
2022-09-21T03:23:35.610Z,8.99
2022-09-21T03:26:02.620Z,8.79
2022-09-21T03:28:29.122Z,8.96
2022-09-21T03:30:55.783Z,8.97
2022-09-21T03:33:22.412Z,8.92
2022-09-21T03:35:49.511Z,8.98
2022-09-21T03:38:16.926Z,8.99
2022-09-21T03:40:47.370Z,8.91
2022-09-21T03:43:14.263Z,8.91
2022-09-21T03:45:42.080Z,8.94
2022-09-21T03:48:10.538Z,8.85
2022-09-21T03:50:38.285Z,8.78
2022-09-21T03:53:05.452Z,8.49
2022-09-21T03:55:33.194Z,8.37
2022-09-21T03:57:59.819Z,8.49
2022-09-21T04:00:27.366Z,8.30
2022-09-21T04:02:53.920Z,8.32
2022-09-21T04:05:20.929Z,8.45
2022-09-21T04:07:47.739Z,8.28
2022-09-21T04:10:17.700Z,8.40
2022-09-21T04:12:45.426Z,8.43
2022-09-21T04:15:14.142Z,8.34
2022-09-21T04:17:41.363Z,8.36
2022-09-21T04:20:09.221Z,8.26
2022-09-21T04:22:41.105Z,8.34
2022-09-21T04:25:10.853Z,8.29
2022-09-21T04:27:37.387Z,8.14
2022-09-21T04:30:05.093Z,8.07
2022-09-21T04:32:31.790Z,8.13
2022-09-21T04:34:58.314Z,8.13
2022-09-21T04:37:24.879Z,8.11
2022-09-21T04:39:51.509Z,7.91
2022-09-21T04:42:18.086Z,8.04
2022-09-21T04:44:44.963Z,7.94
2022-09-21T04:47:11.937Z,8.15
2022-09-21T04:49:38.674Z,8.07
2022-09-21T04:52:06.043Z,8.00
2022-09-21T04:54:32.589Z,8.01
2022-09-21T04:56:59.085Z,8.08
2022-09-21T04:59:25.649Z,8.17
2022-09-21T05:01:52.204Z,8.18
2022-09-21T05:04:18.764Z,8.13
2022-09-21T05:06:45.290Z,8.12
2022-09-21T05:09:30.072Z,8.09
2022-09-21T05:11:56.609Z,7.97
2022-09-21T05:14:23.144Z,8.06
2022-09-21T05:16:49.784Z,8.00
2022-09-21T05:19:17.361Z,7.79
2022-09-21T05:21:43.932Z,7.82
2022-09-21T05:24:10.552Z,7.99
2022-09-21T05:26:37.814Z,7.79
2022-09-21T05:29:05.141Z,7.83
2022-09-21T05:31:56.482Z,7.94
2022-09-21T05:34:36.390Z,8.03
2022-09-21T05:37:21.339Z,8.15
2022-09-21T05:39:48.172Z,8.09
2022-09-21T05:42:14.937Z,8.03
2022-09-21T05:44:41.821Z,7.82
2022-09-21T05:47:33.062Z,7.80
2022-09-21T05:49:59.496Z,7.80
2022-09-21T05:52:38.454Z,7.76
2022-09-21T05:55:34.504Z,7.76
2022-09-21T05:58:31.913Z,7.84
2022-09-21T06:01:19.725Z,7.78
2022-09-21T06:03:48.840Z,7.81
2022-09-21T06:06:20.635Z,7.82
2022-09-21T06:08:47.175Z,7.75
2022-09-21T06:11:14.202Z,7.70
2022-09-21T06:13:43.823Z,7.88
2022-09-21T06:16:10.505Z,7.96
2022-09-21T06:18:41.222Z,8.07
2022-09-21T06:21:08.656Z,8.20
2022-09-21T06:23:36.048Z,8.34
2022-09-21T06:26:02.718Z,8.30
2022-09-21T06:28:29.849Z,8.40
2022-09-21T06:30:58.147Z,8.63
2022-09-21T06:33:25.140Z,8.50
2022-09-21T06:35:54.118Z,8.78
2022-09-21T06:38:21.061Z,8.83
2022-09-21T06:40:47.819Z,8.83
2022-09-21T06:43:14.355Z,8.80
2022-09-21T06:45:41.090Z,8.99
2022-09-21T06:48:07.734Z,9.09
2022-09-21T06:50:34.256Z,9.18
2022-09-21T06:53:01.332Z,9.10
2022-09-21T06:55:28.209Z,9.15
2022-09-21T06:58:03.665Z,9.14
2022-09-21T07:00:34.611Z,9.17
2022-09-21T07:03:01.361Z,9.25
2022-09-21T07:05:28.219Z,9.54
2022-09-21T07:07:58.871Z,9.67
2022-09-21T07:10:26.320Z,9.71
2022-09-21T07:12:53.243Z,9.98
2022-09-21T07:15:20.528Z,10.34
2022-09-21T07:17:51.677Z,10.38
2022-09-21T07:20:18.854Z,10.79
2022-09-21T07:22:45.692Z,11.02
2022-09-21T07:25:12.515Z,11.25
2022-09-21T07:27:39.425Z,11.50
2022-09-21T07:30:07.270Z,11.74
2022-09-21T07:32:34.288Z,12.13
2022-09-21T07:35:00.933Z,12.60
2022-09-21T07:37:28.967Z,12.93
2022-09-21T07:39:55.532Z,13.45
2022-09-21T07:42:22.960Z,13.77
2022-09-21T07:44:50.937Z,14.04
2022-09-21T07:47:17.688Z,14.35
2022-09-21T07:49:44.539Z,14.60
2022-09-21T07:52:11.433Z,14.76
2022-09-21T07:54:38.192Z,15.12
2022-09-21T07:57:23.727Z,15.47
2022-09-21T07:59:50.699Z,15.89
2022-09-21T08:02:17.320Z,16.29
2022-09-21T08:04:43.903Z,16.69
2022-09-21T08:07:10.466Z,17.14
2022-09-21T08:09:37.197Z,17.33
2022-09-21T08:12:06.762Z,17.76
2022-09-21T08:14:34.637Z,18.01
2022-09-21T08:17:01.794Z,18.23
2022-09-21T08:19:28.293Z,18.52
2022-09-21T08:21:57.566Z,18.77
2022-09-21T08:24:25.078Z,19.03
2022-09-21T08:26:52.283Z,19.43
2022-09-21T08:29:19.194Z,19.60
2022-09-21T08:31:46.855Z,19.87
2022-09-21T08:34:14.279Z,20.26
2022-09-21T08:36:41.097Z,20.71
2022-09-21T08:39:08.404Z,20.92
2022-09-21T08:41:57.527Z,21.28
2022-09-21T08:44:29.741Z,21.27
2022-09-21T08:47:10.088Z,21.47
2022-09-21T08:49:40.467Z,21.69
2022-09-21T08:52:16.242Z,22.02
2022-09-21T08:54:56.773Z,22.06
2022-09-21T08:57:28.960Z,22.13
2022-09-21T08:59:55.502Z,22.28
2022-09-21T09:02:43.950Z,22.71
2022-09-21T09:05:48.622Z,22.81
2022-09-21T09:08:24.320Z,22.94
2022-09-21T09:11:27.972Z,23.30
2022-09-21T09:14:26.510Z,23.71
2022-09-21T09:17:17.076Z,23.76
2022-09-21T09:20:10.696Z,23.51
2022-09-21T09:22:43.257Z,23.36
2022-09-21T09:25:35.010Z,23.71
2022-09-21T09:28:15.843Z,23.89
2022-09-21T09:30:43.341Z,23.73
2022-09-21T09:33:36.027Z,23.92
2022-09-21T09:36:05.877Z,24.38
2022-09-21T09:38:36.707Z,24.82
2022-09-21T09:41:29.181Z,25.05
2022-09-21T09:44:14.389Z,24.95
2022-09-21T09:46:58.508Z,25.22
2022-09-21T09:49:50.926Z,25.51
2022-09-21T09:52:17.587Z,25.30
2022-09-21T09:54:44.623Z,25.32
2022-09-21T09:57:12.824Z,25.52
2022-09-21T09:59:55.389Z,25.48
2022-09-21T10:02:25.162Z,24.98
2022-09-21T10:05:03.850Z,25.33
2022-09-21T10:07:37.492Z,25.07
2022-09-21T10:10:27.042Z,25.87
2022-09-21T10:12:53.758Z,26.56
2022-09-21T10:15:24.001Z,26.55
2022-09-21T10:18:02.064Z,26.59
2022-09-21T10:20:30.925Z,25.99
2022-09-21T10:23:00.874Z,25.93
2022-09-21T10:25:27.674Z,25.52
2022-09-21T10:27:56.026Z,26.38
2022-09-21T10:30:35.372Z,26.33
2022-09-21T10:33:02.140Z,26.30
2022-09-21T10:35:29.750Z,25.84
2022-09-21T10:38:11.645Z,24.90
2022-09-21T10:40:39.942Z,24.40
2022-09-21T10:43:24.115Z,24.81
2022-09-21T10:45:56.934Z,25.47
2022-09-21T10:48:27.094Z,25.97
2022-09-21T10:50:56.746Z,26.00
2022-09-21T10:53:30.441Z,26.49
2022-09-21T10:56:18.976Z,26.67
2022-09-21T10:59:20.233Z,26.58
2022-09-21T11:01:49.599Z,26.84
2022-09-21T11:04:24.913Z,26.87
2022-09-21T11:07:02.357Z,27.76
2022-09-21T11:09:41.290Z,27.83
2022-09-21T11:12:34.070Z,28.25
2022-09-21T11:15:30.388Z,28.52
2022-09-21T11:18:16.836Z,27.76
2022-09-21T11:20:52.979Z,27.63
2022-09-21T11:23:41.252Z,27.23
2022-09-21T11:26:13.279Z,27.45
2022-09-21T11:28:49.009Z,27.93
2022-09-21T11:31:28.371Z,28.05
2022-09-21T11:34:26.140Z,28.52
2022-09-21T11:37:00.908Z,28.58
2022-09-21T11:40:01.731Z,28.71
2022-09-21T11:42:56.871Z,28.54
2022-09-21T11:45:50.765Z,27.43
2022-09-21T11:48:37.413Z,27.62
2022-09-21T11:51:25.814Z,28.51
2022-09-21T11:54:15.212Z,28.97
2022-09-21T11:57:08.575Z,29.08
2022-09-21T12:00:04.200Z,29.71
2022-09-21T12:02:52.709Z,28.94
2022-09-21T12:05:37.637Z,28.99
2022-09-21T12:08:13.224Z,29.37
2022-09-21T12:10:44.948Z,28.31
2022-09-21T12:13:19.135Z,27.40
2022-09-21T12:15:57.583Z,27.57
2022-09-21T12:18:32.638Z,28.34
2022-09-21T12:21:08.204Z,28.78
2022-09-21T12:23:37.560Z,29.06
2022-09-21T12:26:06.382Z,29.58
2022-09-21T12:28:41.523Z,29.01
2022-09-21T12:31:45.054Z,28.50
2022-09-21T12:34:18.991Z,27.15
2022-09-21T12:37:08.540Z,25.45
2022-09-21T12:40:07.140Z,26.37
2022-09-21T12:42:38.701Z,27.30
2022-09-21T12:45:25.491Z,27.70
2022-09-21T12:48:04.433Z,28.47
2022-09-21T12:50:39.353Z,28.94
2022-09-21T12:53:07.945Z,29.43
2022-09-21T12:55:35.596Z,28.83
2022-09-21T12:58:15.528Z,28.82
2022-09-21T13:01:06.080Z,28.64
2022-09-21T13:03:53.424Z,29.15
2022-09-21T13:06:42.851Z,29.63
2022-09-21T13:09:15.189Z,30.12
2022-09-21T13:12:07.964Z,30.41
2022-09-21T13:14:41.606Z,30.69
2022-09-21T13:17:22.867Z,30.78
2022-09-21T13:20:26.446Z,30.62
2022-09-21T13:23:02.797Z,30.34
2022-09-21T13:25:32.653Z,30.41
2022-09-21T13:28:13.130Z,30.48
2022-09-21T13:30:48.156Z,30.88
2022-09-21T13:33:20.489Z,30.45
2022-09-21T13:36:08.060Z,29.11
2022-09-21T13:38:47.988Z,28.48
2022-09-21T13:41:17.554Z,28.18
2022-09-21T13:43:54.144Z,27.99
2022-09-21T13:46:48.677Z,28.38
2022-09-21T13:49:15.511Z,29.04
2022-09-21T13:52:10.154Z,29.03
2022-09-21T13:54:48.316Z,29.38
2022-09-21T13:57:27.984Z,29.59
2022-09-21T14:00:20.258Z,28.10
2022-09-21T14:03:00.775Z,26.96
2022-09-21T14:05:39.904Z,26.41
2022-09-21T14:08:15.245Z,26.78
2022-09-21T14:10:58.109Z,26.58
2022-09-21T14:13:38.229Z,25.82
2022-09-21T14:16:29.538Z,25.56
2022-09-21T14:18:56.593Z,25.29
2022-09-21T14:21:23.358Z,25.44
2022-09-21T14:24:08.145Z,25.45
2022-09-21T14:26:40.986Z,25.15
2022-09-21T14:29:41.666Z,25.74
2022-09-21T14:32:16.294Z,25.88
2022-09-21T14:34:46.937Z,26.21
2022-09-21T14:37:27.669Z,26.76
2022-09-21T14:39:54.756Z,26.37
2022-09-21T14:42:28.916Z,26.41
2022-09-21T14:45:01.380Z,26.18
2022-09-21T14:47:52.867Z,26.44
2022-09-21T14:50:33.218Z,26.53
2022-09-21T14:53:28.221Z,26.92
2022-09-21T14:56:11.889Z,27.00
2022-09-21T14:59:17.333Z,27.17
2022-09-21T15:02:21.828Z,26.91
2022-09-21T15:05:07.376Z,25.56
2022-09-21T15:08:06.082Z,24.79
2022-09-21T15:10:57.307Z,24.24
2022-09-21T15:13:47.076Z,24.06
2022-09-21T15:16:36.369Z,23.21
2022-09-21T15:19:14.590Z,23.01
2022-09-21T15:21:49.521Z,22.99
2022-09-21T15:24:24.951Z,23.03
2022-09-21T15:26:54.866Z,23.06
2022-09-21T15:29:31.457Z,23.28
2022-09-21T15:31:59.756Z,22.75
2022-09-21T15:34:26.808Z,22.28
2022-09-21T15:36:53.473Z,21.77
2022-09-21T15:39:24.580Z,21.62
2022-09-21T15:42:08.108Z,21.63
2022-09-21T15:44:39.539Z,21.62
2022-09-21T15:47:12.938Z,21.77
2022-09-21T15:49:40.774Z,21.64
2022-09-21T15:52:40.484Z,21.36
2022-09-21T15:55:25.353Z,21.11
2022-09-21T15:57:57.975Z,21.10
2022-09-21T16:00:35.220Z,20.80
2022-09-21T16:03:15.718Z,20.28
2022-09-21T16:05:53.733Z,20.33
2022-09-21T16:08:36.593Z,20.27
2022-09-21T16:11:35.794Z,20.33
2022-09-21T16:14:29.433Z,20.27
2022-09-21T16:17:17.955Z,20.38
2022-09-21T16:19:56.766Z,20.40
2022-09-21T16:22:44.873Z,20.34
2022-09-21T16:25:24.706Z,20.05
2022-09-21T16:27:59.863Z,19.97
2022-09-21T16:30:44.129Z,19.48
2022-09-21T16:33:42.222Z,19.26
2022-09-21T16:36:17.661Z,18.96
2022-09-21T16:38:45.037Z,18.90
2022-09-21T16:41:11.614Z,18.72
2022-09-21T16:43:40.425Z,18.81
2022-09-21T16:46:08.246Z,19.08
2022-09-21T16:49:01.543Z,18.95
2022-09-21T16:51:28.612Z,19.27
2022-09-21T16:53:56.533Z,19.37
2022-09-21T16:56:23.145Z,19.30
2022-09-21T16:58:51.055Z,19.50
2022-09-21T17:01:22.133Z,19.52
2022-09-21T17:03:48.754Z,19.24
2022-09-21T17:06:20.198Z,19.19
2022-09-21T17:08:49.897Z,19.08
2022-09-21T17:11:21.995Z,19.11
2022-09-21T17:13:50.108Z,19.06
2022-09-21T17:16:18.968Z,19.08
2022-09-21T17:18:46.843Z,19.28
2022-09-21T17:21:14.269Z,19.34
2022-09-21T17:23:41.980Z,19.23
2022-09-21T17:26:21.951Z,19.00
2022-09-21T17:28:48.892Z,18.90
2022-09-21T17:31:16.704Z,18.69
2022-09-21T17:33:51.899Z,18.46
2022-09-21T17:36:18.976Z,18.32
2022-09-21T17:38:45.558Z,18.18
2022-09-21T17:45:01.639Z,17.80
2022-09-21T17:47:30.860Z,17.65
2022-09-21T17:50:13.102Z,17.77
2022-09-21T17:52:59.777Z,17.65
2022-09-21T17:55:26.790Z,17.48
2022-09-21T17:58:05.866Z,17.40
2022-09-21T18:00:50.634Z,17.36
2022-09-21T18:03:28.807Z,17.29
2022-09-21T18:06:00.827Z,17.11
2022-09-21T18:08:29.250Z,17.03
2022-09-21T18:11:29.454Z,17.10
2022-09-21T18:14:05.596Z,17.01
2022-09-21T18:16:48.779Z,16.92
2022-09-21T18:19:18.153Z,16.95
2022-09-21T18:21:47.587Z,16.82
2022-09-21T18:24:20.147Z,16.81
2022-09-21T18:26:49.119Z,16.73
2022-09-21T18:29:46.527Z,16.65
2022-09-21T18:32:49.600Z,16.46
2022-09-21T18:35:31.677Z,16.40
2022-09-21T18:38:04.365Z,16.31
2022-09-21T18:41:03.360Z,16.23
2022-09-21T18:43:41.304Z,16.14
2022-09-21T18:46:18.238Z,16.03
2022-09-21T18:49:00.182Z,15.96
2022-09-21T18:51:55.228Z,15.54
2022-09-21T18:54:30.511Z,15.57
2022-09-21T18:56:58.011Z,15.50
2022-09-21T18:59:29.600Z,15.56
2022-09-21T19:01:59.489Z,15.58
2022-09-21T19:04:28.124Z,15.56
2022-09-21T19:07:10.896Z,15.48
2022-09-21T19:10:15.458Z,15.42
2022-09-21T19:13:16.194Z,15.29
2022-09-21T19:16:11.621Z,15.20
2022-09-21T19:19:10.377Z,15.06
2022-09-21T19:21:40.310Z,14.97
2022-09-21T19:24:13.404Z,14.84
2022-09-21T19:27:04.722Z,14.70
2022-09-21T19:29:44.969Z,14.58
2022-09-21T19:32:17.985Z,14.46
2022-09-21T19:34:44.842Z,14.40
2022-09-21T19:37:11.632Z,14.37
2022-09-21T19:39:38.793Z,14.17
2022-09-21T19:42:17.259Z,14.23
2022-09-21T19:45:06.606Z,14.15
2022-09-21T19:47:53.547Z,14.00
2022-09-21T19:50:25.931Z,14.00
2022-09-21T19:53:13.110Z,13.94
2022-09-21T19:56:01.210Z,13.86
2022-09-21T19:58:46.721Z,13.86
2022-09-21T20:01:17.938Z,13.82
2022-09-21T20:03:46.418Z,13.90
2022-09-21T20:06:27.136Z,13.88
2022-09-21T20:09:12.272Z,13.89
2022-09-21T20:12:06.703Z,13.74
2022-09-21T20:14:42.546Z,13.75
2022-09-21T20:17:38.650Z,13.44
2022-09-21T20:20:30.528Z,13.65
2022-09-21T20:22:58.585Z,13.48
2022-09-21T20:25:31.373Z,13.58
2022-09-21T20:27:59.196Z,13.50
2022-09-21T20:30:28.668Z,13.46
2022-09-21T20:33:07.642Z,13.39
2022-09-21T20:35:34.845Z,13.17
2022-09-21T20:38:03.012Z,13.23
2022-09-21T20:40:31.179Z,13.12
2022-09-21T20:43:03.800Z,13.17
2022-09-21T20:45:30.719Z,13.13
2022-09-21T20:48:12.922Z,13.20
2022-09-21T20:50:48.909Z,13.22
2022-09-21T20:53:15.576Z,13.15
2022-09-21T20:55:43.991Z,13.10
2022-09-21T20:58:13.600Z,12.93
2022-09-21T21:00:40.224Z,12.82
2022-09-21T21:03:06.733Z,12.87
2022-09-21T21:05:33.308Z,12.78
2022-09-21T21:07:59.892Z,12.64
2022-09-21T21:10:26.438Z,12.74
2022-09-21T21:12:52.961Z,12.74
2022-09-21T21:15:19.521Z,12.72
2022-09-21T21:17:47.345Z,12.85
2022-09-21T21:20:16.312Z,12.83
2022-09-21T21:22:44.579Z,12.75
2022-09-21T21:25:11.561Z,12.49
2022-09-21T21:30:24.799Z,12.62
2022-09-21T21:32:53.159Z,12.65
2022-09-21T21:35:20.222Z,12.50
2022-09-21T21:37:46.716Z,12.36
2022-09-21T21:40:13.278Z,12.56
2022-09-21T21:42:39.847Z,12.49
2022-09-21T21:45:06.906Z,12.46
2022-09-21T21:47:41.361Z,12.46
2022-09-21T21:50:09.292Z,12.46
2022-09-21T21:52:35.821Z,12.32
2022-09-21T21:55:02.582Z,12.45
2022-09-21T21:57:29.195Z,12.43
2022-09-21T21:59:55.703Z,12.35
2022-09-21T22:02:22.357Z,12.34
2022-09-21T22:04:48.935Z,12.24
2022-09-21T22:07:15.452Z,12.23
2022-09-21T22:09:41.961Z,12.10
2022-09-21T22:12:09.113Z,12.01
2022-09-21T22:14:35.611Z,12.01
2022-09-21T22:17:02.247Z,11.85
2022-09-21T22:19:28.814Z,11.80
2022-09-21T22:21:55.345Z,11.89
2022-09-21T22:24:22.323Z,11.90
2022-09-21T22:26:48.948Z,11.78
2022-09-21T22:29:17.107Z,11.87
2022-09-21T22:31:46.280Z,11.82
2022-09-21T22:34:14.621Z,11.86
2022-09-21T22:36:43.544Z,11.73
2022-09-21T22:39:10.890Z,11.53
2022-09-21T22:41:39.585Z,11.40
2022-09-21T22:44:07.241Z,11.07
2022-09-21T22:46:34.525Z,11.12
2022-09-21T22:49:01.316Z,11.03
2022-09-21T22:51:29.136Z,10.88
2022-09-21T22:53:56.102Z,10.72
2022-09-21T22:56:25.631Z,10.86
2022-09-21T22:58:55.165Z,10.79
2022-09-21T23:01:25.536Z,10.72
2022-09-21T23:03:55.805Z,10.66
2022-09-21T23:06:26.505Z,10.43
2022-09-21T23:08:54.730Z,10.43
2022-09-21T23:11:24.105Z,10.38
2022-09-21T23:13:50.669Z,10.39
2022-09-21T23:16:19.153Z,10.43
2022-09-21T23:18:48.390Z,10.18
2022-09-21T23:21:18.020Z,10.30
2022-09-21T23:23:45.438Z,10.33
2022-09-21T23:26:18.099Z,10.33
2022-09-21T23:28:46.376Z,10.33
2022-09-21T23:31:15.086Z,10.47
2022-09-21T23:33:47.527Z,10.58
2022-09-21T23:36:16.483Z,10.51
2022-09-21T23:38:44.045Z,10.64
2022-09-21T23:41:14.074Z,10.62
2022-09-21T23:43:42.391Z,10.62
2022-09-21T23:46:11.676Z,10.41
2022-09-21T23:48:38.949Z,10.31
2022-09-21T23:51:06.729Z,10.17
2022-09-21T23:53:33.766Z,10.01
2022-09-21T23:56:00.592Z,9.86
2022-09-21T23:58:27.820Z,9.75
